Terminal Aerodrome Forecast
Issued by NWS

Home | Current Version | Previous Version | Text Only | Print | Product List | Glossary Off
Versions: 1 2 3 4 5 6 7 8 9 10 11 12 13 14 15 16 17 18 19 20 21 22

000
FTUS43 KGRB 162300
TAFAUW
TAF
KAUW 162337Z 1700/1724 31012G18KT P6SM SCT025 OVC040
      TEMPO 1700/1702 5SM -SN BKN020
     FM171500 30010G17KT P6SM SCT015 OVC029
     FM171800 30009KT P6SM SCT029 OVC040=

USA.gov is the U.S. government's official web portal to all federal, state and local government web resources and services.